EZY837B EGAA-EGPF
Flight info
| Callsign | EZY837B |
|---|---|
| Flight time | 0h 33m |
| Altitude | 13000 |
| Route | BLACA |
| Aircraft | A20N/M-SDE2E3FGHIJ1RWXYZ/LB1G1 |
Departure
| Time | 2026-05-08 06:52 |
|---|---|
| Airport | Belfast International Airport (EGAA) |
Arrival
| Time | 2026-05-08 07:26 |
|---|---|
| Airport | Glasgow Airport (EGPF) |
| Time | Latitude | Longitude | Altitude | Speed | Heading |
|---|---|---|---|---|---|
| 2026-05-08 06:33 | 54.66144 | -6.21383 | 243 ft | 0 kts | 246° |
| 2026-05-08 06:43 | 54.66146 | -6.21373 | 243 ft | 2 kts | 248° |
| 2026-05-08 06:43 | 54.66152 | -6.21349 | 244 ft | 2 kts | 245° |
| 2026-05-08 06:43 | 54.66156 | -6.21335 | 244 ft | 2 kts | 246° |
| 2026-05-08 06:43 | 54.66166 | -6.21315 | 245 ft | 2 kts | 210° |
| 2026-05-08 06:44 | 54.66180 | -6.21307 | 244 ft | 2 kts | 181° |
| 2026-05-08 06:44 | 54.66192 | -6.21309 | 244 ft | 0 kts | 159° |
| 2026-05-08 06:44 | 54.66198 | -6.21314 | 244 ft | 0 kts | 155° |
| 2026-05-08 06:44 | 54.66198 | -6.21315 | 244 ft | 0 kts | 155° |
| 2026-05-08 06:46 | 54.66198 | -6.21314 | 244 ft | 0 kts | 155° |
| 2026-05-08 06:46 | 54.66196 | -6.21313 | 244 ft | 1 kts | 155° |
| 2026-05-08 06:47 | 54.66185 | -6.21304 | 244 ft | 2 kts | 155° |
| 2026-05-08 06:47 | 54.66165 | -6.21288 | 245 ft | 4 kts | 156° |
| 2026-05-08 06:47 | 54.66135 | -6.21267 | 246 ft | 5 kts | 158° |
| 2026-05-08 06:47 | 54.66099 | -6.21241 | 247 ft | 6 kts | 158° |
| 2026-05-08 06:48 | 54.66061 | -6.21194 | 247 ft | 7 kts | 114° |
| 2026-05-08 06:48 | 54.66065 | -6.21097 | 249 ft | 8 kts | 69° |
| 2026-05-08 06:48 | 54.66091 | -6.21000 | 252 ft | 8 kts | 64° |
| 2026-05-08 06:48 | 54.66118 | -6.20904 | 253 ft | 9 kts | 65° |
| 2026-05-08 06:49 | 54.66145 | -6.20794 | 255 ft | 10 kts | 68° |
| 2026-05-08 06:49 | 54.66175 | -6.20678 | 257 ft | 10 kts | 65° |
| 2026-05-08 06:49 | 54.66209 | -6.20558 | 259 ft | 11 kts | 65° |
| 2026-05-08 06:49 | 54.66243 | -6.20428 | 261 ft | 12 kts | 65° |
| 2026-05-08 06:50 | 54.66281 | -6.20290 | 264 ft | 12 kts | 65° |
| 2026-05-08 06:50 | 54.66318 | -6.20148 | 266 ft | 13 kts | 65° |
| 2026-05-08 06:50 | 54.66358 | -6.19997 | 267 ft | 14 kts | 67° |
| 2026-05-08 06:50 | 54.66392 | -6.19850 | 269 ft | 11 kts | 78° |
| 2026-05-08 06:51 | 54.66366 | -6.19726 | 270 ft | 11 kts | 140° |
| 2026-05-08 06:51 | 54.66312 | -6.19666 | 270 ft | 5 kts | 158° |
| 2026-05-08 06:51 | 54.66270 | -6.19677 | 270 ft | 6 kts | 213° |
| 2026-05-08 06:51 | 54.66239 | -6.19752 | 270 ft | 8 kts | 242° |
| 2026-05-08 06:52 | 54.66159 | -6.20055 | 267 ft | 65 kts | 244° |
| 2026-05-08 06:52 | 54.65863 | -6.21175 | 249 ft | 136 kts | 245° |
| 2026-05-08 06:52 | 54.65397 | -6.22881 | 531 ft | 166 kts | 246° |
| 2026-05-08 06:52 | 54.64916 | -6.24662 | 1340 ft | 163 kts | 248° |
| 2026-05-08 06:53 | 54.64588 | -6.26431 | 2179 ft | 157 kts | 270° |
| 2026-05-08 06:53 | 54.64724 | -6.28367 | 2683 ft | 172 kts | 289° |
| 2026-05-08 06:53 | 54.65293 | -6.30296 | 3237 ft | 188 kts | 307° |
| 2026-05-08 06:53 | 54.66314 | -6.31814 | 3792 ft | 207 kts | 335° |
| 2026-05-08 06:54 | 54.67789 | -6.32595 | 4415 ft | 226 kts | 346° |
| 2026-05-08 06:54 | 54.69381 | -6.33139 | 5019 ft | 244 kts | 348° |
| 2026-05-08 06:54 | 54.71121 | -6.33673 | 5623 ft | 263 kts | 348° |
| 2026-05-08 06:54 | 54.73018 | -6.33793 | 6353 ft | 279 kts | 12° |
| 2026-05-08 06:55 | 54.74721 | -6.32181 | 7225 ft | 287 kts | 46° |
| 2026-05-08 06:55 | 54.75684 | -6.29220 | 8125 ft | 290 kts | 77° |
| 2026-05-08 06:55 | 54.76012 | -6.25806 | 9015 ft | 293 kts | 86° |
| 2026-05-08 06:55 | 54.76239 | -6.22203 | 9893 ft | 298 kts | 85° |
| 2026-05-08 06:56 | 54.76516 | -6.18568 | 10684 ft | 306 kts | 84° |
| 2026-05-08 06:56 | 54.76863 | -6.14827 | 11210 ft | 323 kts | 82° |
| 2026-05-08 06:56 | 54.77269 | -6.10994 | 11951 ft | 331 kts | 81° |
| 2026-05-08 06:56 | 54.77725 | -6.06987 | 12618 ft | 335 kts | 81° |
| 2026-05-08 06:57 | 54.78199 | -6.02935 | 12974 ft | 338 kts | 81° |
| 2026-05-08 06:57 | 54.78676 | -5.98924 | 13029 ft | 338 kts | 80° |
| 2026-05-08 06:57 | 54.79147 | -5.94978 | 13026 ft | 337 kts | 80° |
| 2026-05-08 06:57 | 54.79645 | -5.90799 | 13027 ft | 337 kts | 80° |
| 2026-05-08 06:58 | 54.80124 | -5.86773 | 13031 ft | 337 kts | 80° |
| 2026-05-08 06:58 | 54.80596 | -5.82796 | 13032 ft | 337 kts | 80° |
| 2026-05-08 06:58 | 54.81071 | -5.78776 | 13036 ft | 337 kts | 80° |
| 2026-05-08 06:58 | 54.81566 | -5.74591 | 13034 ft | 337 kts | 80° |
| 2026-05-08 06:59 | 54.82046 | -5.70517 | 13026 ft | 337 kts | 80° |
| 2026-05-08 06:59 | 54.82524 | -5.66451 | 13025 ft | 337 kts | 80° |
| 2026-05-08 06:59 | 54.83020 | -5.62215 | 13032 ft | 337 kts | 80° |
| 2026-05-08 06:59 | 54.83499 | -5.58106 | 13027 ft | 337 kts | 80° |
| 2026-05-08 07:00 | 54.83959 | -5.54151 | 13023 ft | 337 kts | 80° |
| 2026-05-08 07:00 | 54.84420 | -5.50176 | 13032 ft | 337 kts | 80° |
| 2026-05-08 07:00 | 54.84878 | -5.46216 | 13027 ft | 337 kts | 80° |
| 2026-05-08 07:00 | 54.85337 | -5.42223 | 13034 ft | 337 kts | 80° |
| 2026-05-08 07:01 | 54.85799 | -5.38208 | 13029 ft | 337 kts | 80° |
| 2026-05-08 07:01 | 54.86255 | -5.34219 | 13032 ft | 337 kts | 81° |
| 2026-05-08 07:01 | 54.86613 | -5.31085 | 13035 ft | 337 kts | 81° |
| 2026-05-08 07:01 | 54.87075 | -5.27010 | 13032 ft | 336 kts | 81° |
| 2026-05-08 07:02 | 54.87534 | -5.22975 | 13033 ft | 337 kts | 81° |
| 2026-05-08 07:02 | 54.88067 | -5.19017 | 13025 ft | 338 kts | 71° |
| 2026-05-08 07:02 | 54.89281 | -5.15571 | 13023 ft | 340 kts | 46° |
| 2026-05-08 07:02 | 54.91206 | -5.13121 | 13034 ft | 339 kts | 26° |
| 2026-05-08 07:03 | 54.93344 | -5.11313 | 13032 ft | 339 kts | 24° |
| 2026-05-08 07:03 | 54.95478 | -5.09567 | 13028 ft | 339 kts | 24° |
| 2026-05-08 07:03 | 54.97604 | -5.07804 | 13027 ft | 339 kts | 24° |
| 2026-05-08 07:03 | 54.99771 | -5.05972 | 13024 ft | 339 kts | 25° |
| 2026-05-08 07:04 | 55.01887 | -5.04160 | 13023 ft | 339 kts | 25° |
| 2026-05-08 07:04 | 55.03993 | -5.02341 | 13021 ft | 339 kts | 25° |
| 2026-05-08 07:04 | 55.06108 | -5.00507 | 13020 ft | 339 kts | 25° |
| 2026-05-08 07:04 | 55.08273 | -4.98623 | 13019 ft | 340 kts | 25° |
| 2026-05-08 07:05 | 55.10415 | -4.96757 | 13017 ft | 340 kts | 25° |
| 2026-05-08 07:05 | 55.12521 | -4.94918 | 13023 ft | 340 kts | 25° |
| 2026-05-08 07:05 | 55.14636 | -4.93069 | 13023 ft | 340 kts | 25° |
| 2026-05-08 07:05 | 55.16760 | -4.91210 | 13020 ft | 340 kts | 25° |
| 2026-05-08 07:06 | 55.18859 | -4.89371 | 13020 ft | 340 kts | 25° |
| 2026-05-08 07:06 | 55.20990 | -4.87504 | 13019 ft | 340 kts | 25° |
| 2026-05-08 07:06 | 55.23104 | -4.85648 | 13014 ft | 341 kts | 25° |
| 2026-05-08 07:06 | 55.25237 | -4.83773 | 13011 ft | 341 kts | 25° |
| 2026-05-08 07:07 | 55.27365 | -4.81900 | 13012 ft | 341 kts | 25° |
| 2026-05-08 07:07 | 55.29457 | -4.80026 | 13008 ft | 338 kts | 28° |
| 2026-05-08 07:07 | 55.31404 | -4.77703 | 13003 ft | 324 kts | 39° |
| 2026-05-08 07:07 | 55.33006 | -4.74976 | 13011 ft | 322 kts | 48° |
| 2026-05-08 07:08 | 55.34443 | -4.71963 | 12895 ft | 323 kts | 51° |
| 2026-05-08 07:08 | 55.35843 | -4.68889 | 12639 ft | 320 kts | 51° |
| 2026-05-08 07:08 | 55.37223 | -4.65847 | 12372 ft | 319 kts | 51° |
| 2026-05-08 07:08 | 55.38613 | -4.62800 | 12111 ft | 318 kts | 51° |
| 2026-05-08 07:09 | 55.40002 | -4.59768 | 11853 ft | 316 kts | 51° |
| 2026-05-08 07:09 | 55.41371 | -4.56789 | 11609 ft | 315 kts | 51° |
| 2026-05-08 07:09 | 55.42756 | -4.53778 | 11338 ft | 314 kts | 51° |
| 2026-05-08 07:09 | 55.44114 | -4.50826 | 11086 ft | 312 kts | 51° |
| 2026-05-08 07:10 | 55.45477 | -4.47862 | 10832 ft | 311 kts | 51° |
| 2026-05-08 07:10 | 55.46845 | -4.44886 | 10575 ft | 310 kts | 51° |
| 2026-05-08 07:10 | 55.48189 | -4.41954 | 10322 ft | 308 kts | 51° |
| 2026-05-08 07:10 | 55.49524 | -4.39036 | 10077 ft | 307 kts | 51° |
| 2026-05-08 07:11 | 55.50857 | -4.36119 | 9880 ft | 305 kts | 51° |
| 2026-05-08 07:11 | 55.52201 | -4.33179 | 9752 ft | 305 kts | 52° |
| 2026-05-08 07:11 | 55.53528 | -4.30271 | 9628 ft | 304 kts | 51° |
| 2026-05-08 07:11 | 55.54855 | -4.27363 | 9503 ft | 304 kts | 51° |
| 2026-05-08 07:12 | 55.56186 | -4.24449 | 9372 ft | 304 kts | 51° |
| 2026-05-08 07:12 | 55.57520 | -4.21535 | 9250 ft | 303 kts | 51° |
| 2026-05-08 07:12 | 55.58836 | -4.18651 | 9122 ft | 303 kts | 51° |
| 2026-05-08 07:12 | 55.60157 | -4.15752 | 8991 ft | 295 kts | 51° |
| 2026-05-08 07:13 | 55.61410 | -4.13002 | 8795 ft | 287 kts | 51° |
| 2026-05-08 07:13 | 55.62662 | -4.10245 | 8561 ft | 281 kts | 51° |
| 2026-05-08 07:13 | 55.63875 | -4.07568 | 8328 ft | 277 kts | 51° |
| 2026-05-08 07:13 | 55.65068 | -4.04931 | 8103 ft | 277 kts | 51° |
| 2026-05-08 07:14 | 55.66262 | -4.02287 | 7874 ft | 276 kts | 51° |
| 2026-05-08 07:14 | 55.67466 | -3.99619 | 7642 ft | 275 kts | 51° |
| 2026-05-08 07:14 | 55.68644 | -3.97004 | 7411 ft | 274 kts | 51° |
| 2026-05-08 07:14 | 55.69848 | -3.94330 | 7179 ft | 274 kts | 51° |
| 2026-05-08 07:15 | 55.71028 | -3.91732 | 6952 ft | 273 kts | 47° |
| 2026-05-08 07:15 | 55.72532 | -3.89715 | 6703 ft | 268 kts | 18° |
| 2026-05-08 07:15 | 55.74307 | -3.89173 | 6482 ft | 260 kts | 355° |
| 2026-05-08 07:15 | 55.76096 | -3.89357 | 6208 ft | 255 kts | 350° |
| 2026-05-08 07:16 | 55.77852 | -3.89663 | 5900 ft | 253 kts | 349° |
| 2026-05-08 07:16 | 55.79588 | -3.89995 | 5595 ft | 251 kts | 349° |
| 2026-05-08 07:16 | 55.81322 | -3.90341 | 5287 ft | 249 kts | 349° |
| 2026-05-08 07:16 | 55.83015 | -3.90815 | 4981 ft | 245 kts | 342° |
| 2026-05-08 07:17 | 55.84645 | -3.91619 | 4676 ft | 243 kts | 339° |
| 2026-05-08 07:17 | 55.86262 | -3.92509 | 4364 ft | 241 kts | 338° |
| 2026-05-08 07:17 | 55.87837 | -3.93402 | 4058 ft | 240 kts | 339° |
| 2026-05-08 07:17 | 55.89436 | -3.94332 | 3751 ft | 238 kts | 338° |
| 2026-05-08 07:18 | 55.90989 | -3.95248 | 3448 ft | 237 kts | 338° |
| 2026-05-08 07:18 | 55.92547 | -3.96176 | 3142 ft | 235 kts | 338° |
| 2026-05-08 07:18 | 55.94098 | -3.97097 | 2887 ft | 231 kts | 338° |
| 2026-05-08 07:18 | 55.95582 | -3.97971 | 2854 ft | 223 kts | 338° |
| 2026-05-08 07:19 | 55.97056 | -3.98834 | 2855 ft | 223 kts | 337° |
| 2026-05-08 07:19 | 55.98369 | -4.00171 | 2830 ft | 209 kts | 305° |
| 2026-05-08 07:19 | 55.98922 | -4.02419 | 2845 ft | 189 kts | 283° |
| 2026-05-08 07:19 | 55.99284 | -4.04653 | 2851 ft | 184 kts | 287° |
| 2026-05-08 07:20 | 55.99679 | -4.06742 | 2840 ft | 174 kts | 288° |
| 2026-05-08 07:20 | 56.00093 | -4.08774 | 2853 ft | 173 kts | 289° |
| 2026-05-08 07:20 | 56.00522 | -4.10810 | 2861 ft | 173 kts | 289° |
| 2026-05-08 07:20 | 56.00954 | -4.12815 | 2862 ft | 173 kts | 290° |
| 2026-05-08 07:21 | 56.01292 | -4.14879 | 2863 ft | 173 kts | 271° |
| 2026-05-08 07:21 | 56.01072 | -4.16960 | 2861 ft | 174 kts | 246° |
| 2026-05-08 07:21 | 56.00366 | -4.18793 | 2895 ft | 185 kts | 231° |
| 2026-05-08 07:21 | 55.99479 | -4.20491 | 2881 ft | 189 kts | 228° |
| 2026-05-08 07:22 | 55.98592 | -4.22101 | 2997 ft | 175 kts | 228° |
| 2026-05-08 07:22 | 55.97768 | -4.23601 | 2866 ft | 164 kts | 229° |
| 2026-05-08 07:22 | 55.96991 | -4.25036 | 2644 ft | 159 kts | 229° |
| 2026-05-08 07:22 | 55.96230 | -4.26448 | 2421 ft | 154 kts | 230° |
| 2026-05-08 07:23 | 55.95507 | -4.27795 | 2208 ft | 149 kts | 230° |
| 2026-05-08 07:23 | 55.94814 | -4.29094 | 2003 ft | 143 kts | 230° |
| 2026-05-08 07:23 | 55.94133 | -4.30366 | 1834 ft | 139 kts | 229° |
| 2026-05-08 07:23 | 55.93464 | -4.31613 | 1654 ft | 139 kts | 230° |
| 2026-05-08 07:24 | 55.92802 | -4.32851 | 1469 ft | 138 kts | 229° |
| 2026-05-08 07:24 | 55.92131 | -4.34103 | 1274 ft | 138 kts | 229° |
| 2026-05-08 07:24 | 55.91471 | -4.35337 | 1088 ft | 138 kts | 229° |
| 2026-05-08 07:24 | 55.90806 | -4.36577 | 896 ft | 138 kts | 229° |
| 2026-05-08 07:25 | 55.90154 | -4.37795 | 711 ft | 137 kts | 228° |
| 2026-05-08 07:25 | 55.89494 | -4.39028 | 524 ft | 137 kts | 228° |
| 2026-05-08 07:25 | 55.88173 | -4.41488 | 154 ft | 137 kts | 226° |
| 2026-05-08 07:26 | 55.87527 | -4.42703 | 22 ft | 129 kts | 227° |
| 2026-05-08 07:26 | 55.87111 | -4.43481 | 22 ft | 43 kts | 226° |
| 2026-05-08 07:26 | 55.86962 | -4.43665 | 22 ft | 21 kts | 188° |
| 2026-05-08 07:26 | 55.86852 | -4.43733 | 22 ft | 13 kts | 199° |
| 2026-05-08 07:27 | 55.86765 | -4.43766 | 22 ft | 10 kts | 172° |
| 2026-05-08 07:27 | 55.86760 | -4.43764 | 22 ft | 0 kts | 165° |
| 2026-05-08 07:27 | 55.86754 | -4.43759 | 22 ft | 2 kts | 147° |
| 2026-05-08 07:27 | 55.86744 | -4.43716 | 22 ft | 5 kts | 97° |
| 2026-05-08 07:28 | 55.86750 | -4.43624 | 22 ft | 8 kts | 78° |
| 2026-05-08 07:28 | 55.86768 | -4.43513 | 22 ft | 10 kts | 70° |
| 2026-05-08 07:28 | 55.86792 | -4.43378 | 22 ft | 12 kts | 75° |
| 2026-05-08 07:28 | 55.86816 | -4.43218 | 22 ft | 13 kts | 74° |
| 2026-05-08 07:29 | 55.86835 | -4.43071 | 22 ft | 11 kts | 96° |
| 2026-05-08 07:29 | 55.86794 | -4.42992 | 23 ft | 8 kts | 156° |
| 2026-05-08 07:29 | 55.86741 | -4.42960 | 23 ft | 8 kts | 164° |
| 2026-05-08 07:29 | 55.86712 | -4.42946 | 23 ft | 0 kts | 166° |
| 2026-05-08 07:30 | 55.86710 | -4.42945 | 23 ft | 0 kts | 166° |
| 2026-05-08 07:30 | 55.86706 | -4.42944 | 23 ft | 1 kts | 166° |
| 2026-05-08 07:30 | 55.86696 | -4.42939 | 23 ft | 0 kts | 167° |
| 2026-05-08 07:30 | 55.86691 | -4.42937 | 23 ft | 0 kts | 167° |
| 2026-05-08 07:31 | 55.86690 | -4.42937 | 23 ft | 0 kts | 167° |
| 2026-05-08 07:31 | 55.86681 | -4.42932 | 23 ft | 2 kts | 166° |
| 2026-05-08 07:31 | 55.86660 | -4.42927 | 23 ft | 3 kts | 184° |
| 2026-05-08 07:31 | 55.86637 | -4.42957 | 23 ft | 5 kts | 245° |
| 2026-05-08 07:32 | 55.86630 | -4.43000 | 23 ft | 0 kts | 255° |